createdAt,value
2018-01-24T00:00:29.283Z,6.67
2018-01-24T00:02:55.321Z,7.07
2018-01-24T00:05:22.061Z,6.20
2018-01-24T00:07:49.485Z,6.30
2018-01-24T00:10:15.458Z,8.07
2018-01-24T00:12:41.682Z,7.17
2018-01-24T00:15:08.882Z,6.80
2018-01-24T00:17:37.706Z,6.20
2018-01-24T00:20:03.753Z,6.13
2018-01-24T00:22:29.937Z,6.50
2018-01-24T00:24:56.892Z,6.00
2018-01-24T00:27:23.574Z,5.60
2018-01-24T00:29:49.768Z,6.10
2018-01-24T00:32:15.821Z,6.53
2018-01-24T00:34:49.208Z,6.00
2018-01-24T00:37:17.182Z,6.70
2018-01-24T00:39:43.429Z,6.00
2018-01-24T00:42:10.003Z,6.63
2018-01-24T00:44:35.982Z,6.03
2018-01-24T00:47:02.692Z,5.90
2018-01-24T00:49:28.851Z,6.10
2018-01-24T00:51:54.875Z,6.93
2018-01-24T00:54:20.900Z,6.40
2018-01-24T00:56:46.907Z,6.27
2018-01-24T00:59:12.923Z,8.63
2018-01-24T01:01:38.972Z,6.47
2018-01-24T01:04:07.930Z,6.40
2018-01-24T01:06:33.962Z,6.20
2018-01-24T01:09:00.075Z,6.20
2018-01-24T01:11:26.928Z,5.97
2018-01-24T01:13:53.108Z,6.17
2018-01-24T01:16:19.119Z,5.90
2018-01-24T01:18:45.299Z,6.07
2018-01-24T01:21:11.344Z,6.10
2018-01-24T01:23:37.568Z,6.27
2018-01-24T01:26:03.553Z,6.47
2018-01-24T01:28:29.587Z,6.23
2018-01-24T01:30:56.361Z,6.27
2018-01-24T01:33:22.595Z,6.50
2018-01-24T01:35:50.193Z,6.27
2018-01-24T01:38:16.179Z,6.43
2018-01-24T01:40:42.235Z,6.30
2018-01-24T01:43:08.245Z,6.30
2018-01-24T01:45:35.162Z,6.20
2018-01-24T01:48:01.320Z,5.93
2018-01-24T01:50:27.533Z,6.63
2018-01-24T01:52:53.546Z,5.37
2018-01-24T01:55:19.785Z,6.40
2018-01-24T01:57:46.117Z,6.70
2018-01-24T02:00:12.372Z,6.00
2018-01-24T02:02:39.145Z,5.90
2018-01-24T02:05:05.202Z,6.50
2018-01-24T02:07:31.182Z,6.10
2018-01-24T02:09:58.052Z,6.20
2018-01-24T02:12:24.064Z,6.20
2018-01-24T02:14:50.113Z,6.40
2018-01-24T02:17:16.253Z,6.50
2018-01-24T02:19:42.294Z,5.37
2018-01-24T02:22:08.355Z,6.60
2018-01-24T02:24:34.603Z,8.57
2018-01-24T02:27:00.682Z,5.47
2018-01-24T02:29:27.551Z,5.90
2018-01-24T02:34:24.484Z,6.63
2018-01-24T02:36:51.360Z,7.07
2018-01-24T02:39:17.492Z,5.80
2018-01-24T02:41:44.295Z,5.50
2018-01-24T02:44:11.139Z,6.70
2018-01-24T02:46:37.119Z,6.50
2018-01-24T02:49:03.285Z,5.60
2018-01-24T02:51:29.290Z,5.80
2018-01-24T02:53:55.435Z,5.97
2018-01-24T02:56:23.059Z,6.50
2018-01-24T02:58:49.224Z,6.30
2018-01-24T03:01:15.332Z,5.47
2018-01-24T03:03:42.565Z,6.10
2018-01-24T03:06:08.794Z,6.00
2018-01-24T03:08:35.524Z,5.90
2018-01-24T03:11:01.568Z,6.73
2018-01-24T03:13:29.750Z,5.60
2018-01-24T03:15:55.773Z,6.57
2018-01-24T03:18:21.831Z,6.80
2018-01-24T03:20:47.804Z,5.73
2018-01-24T03:23:13.835Z,7.43
2018-01-24T03:25:40.194Z,6.10
2018-01-24T03:28:06.963Z,5.63
2018-01-24T03:30:33.189Z,4.60
2018-01-24T03:32:59.166Z,6.53
2018-01-24T03:35:26.100Z,5.80
2018-01-24T03:37:52.111Z,5.73
2018-01-24T03:40:18.332Z,6.20
2018-01-24T03:42:44.384Z,5.70
2018-01-24T03:45:10.651Z,6.07
2018-01-24T03:47:36.713Z,6.03
2018-01-24T03:50:02.768Z,6.00
2018-01-24T03:52:28.776Z,6.17
2018-01-24T03:54:55.755Z,6.00
2018-01-24T03:57:21.744Z,5.50
2018-01-24T03:59:48.055Z,6.27
2018-01-24T04:02:14.107Z,6.80
2018-01-24T04:04:40.155Z,5.33
2018-01-24T04:07:07.760Z,5.23
2018-01-24T04:09:33.816Z,5.20
2018-01-24T04:11:59.829Z,5.43
2018-01-24T04:14:26.167Z,6.40
2018-01-24T04:16:52.248Z,5.30
2018-01-24T04:19:19.026Z,5.37
2018-01-24T04:21:45.131Z,5.20
2018-01-24T04:24:11.226Z,5.67
2018-01-24T04:26:37.447Z,5.70
2018-01-24T04:29:03.750Z,5.00
2018-01-24T04:31:29.738Z,4.70
2018-01-24T04:33:55.747Z,5.30
2018-01-24T04:36:21.783Z,5.77
2018-01-24T04:38:47.775Z,5.63
2018-01-24T04:41:13.809Z,5.87
2018-01-24T04:43:40.225Z,6.20
2018-01-24T04:46:07.387Z,5.83
2018-01-24T04:48:33.435Z,5.30
2018-01-24T04:50:59.487Z,5.50
2018-01-24T04:53:25.636Z,5.50
2018-01-24T04:55:51.639Z,5.30
2018-01-24T04:58:17.614Z,5.73
2018-01-24T05:00:43.669Z,5.43
2018-01-24T05:03:09.896Z,5.50
2018-01-24T05:05:36.058Z,5.73
2018-01-24T05:08:02.484Z,5.33
2018-01-24T05:10:28.475Z,5.17
2018-01-24T05:12:54.519Z,6.87
2018-01-24T05:15:20.618Z,5.60
2018-01-24T05:17:46.778Z,5.53
2018-01-24T05:20:12.798Z,5.23
2018-01-24T05:22:38.769Z,5.60
2018-01-24T05:25:04.870Z,6.43
2018-01-24T05:27:30.923Z,5.20
2018-01-24T05:29:57.221Z,6.40
2018-01-24T05:32:23.548Z,5.87
2018-01-24T05:34:49.857Z,6.40
2018-01-24T05:37:16.035Z,7.10
2018-01-24T05:39:42.302Z,6.17
2018-01-24T05:42:08.968Z,5.37
2018-01-24T05:44:35.076Z,5.50
2018-01-24T05:47:01.138Z,6.37
2018-01-24T05:49:27.277Z,6.50
2018-01-24T05:51:53.256Z,6.80
2018-01-24T05:54:19.373Z,5.57
2018-01-24T05:56:45.453Z,6.10
2018-01-24T05:59:11.503Z,6.30
2018-01-24T06:01:37.728Z,5.90
2018-01-24T06:04:03.733Z,5.97
2018-01-24T06:06:30.092Z,5.90
2018-01-24T06:08:56.220Z,5.73
2018-01-24T06:11:22.327Z,5.67
2018-01-24T06:13:48.408Z,5.70
2018-01-24T06:16:14.491Z,5.77
2018-01-24T06:18:40.532Z,5.53
2018-01-24T06:21:06.587Z,5.13
2018-01-24T06:23:33.348Z,5.80
2018-01-24T06:25:59.481Z,5.27
2018-01-24T06:28:26.300Z,6.20
2018-01-24T06:30:53.107Z,5.93
2018-01-24T06:33:19.907Z,5.83
2018-01-24T06:35:45.947Z,5.97
2018-01-24T06:38:13.001Z,5.63
2018-01-24T06:40:39.177Z,6.47
2018-01-24T06:43:05.181Z,6.20
2018-01-24T06:45:32.267Z,6.47
2018-01-24T06:47:59.255Z,6.17
2018-01-24T06:50:25.371Z,7.13
2018-01-24T06:52:52.345Z,6.00
2018-01-24T06:55:18.437Z,6.37
2018-01-24T06:57:44.475Z,6.50
2018-01-24T07:00:10.912Z,6.40
2018-01-24T07:02:36.905Z,6.50
2018-01-24T07:05:03.224Z,6.83
2018-01-24T07:07:29.339Z,6.90
2018-01-24T07:09:56.081Z,6.47
2018-01-24T07:12:35.008Z,7.37
2018-01-24T07:15:01.188Z,6.73
2018-01-24T07:17:28.210Z,6.60
2018-01-24T07:19:54.216Z,6.30
2018-01-24T07:22:20.396Z,6.13
2018-01-24T07:24:46.649Z,7.07
2018-01-24T07:27:12.752Z,6.03
2018-01-24T07:29:38.990Z,7.63
2018-01-24T07:32:05.068Z,6.20
2018-01-24T07:34:31.516Z,6.30
2018-01-24T07:39:31.402Z,6.97
2018-01-24T07:41:58.861Z,6.53
2018-01-24T07:44:24.985Z,7.43
2018-01-24T07:46:51.151Z,6.17
2018-01-24T07:49:21.904Z,6.47
2018-01-24T07:51:48.744Z,6.60
2018-01-24T07:54:14.826Z,7.13
2018-01-24T07:56:44.363Z,6.97
2018-01-24T07:59:10.402Z,6.97
2018-01-24T08:01:36.453Z,6.30
2018-01-24T08:04:02.648Z,7.30
2018-01-24T08:06:29.792Z,6.70
2018-01-24T08:08:56.095Z,7.00
2018-01-24T08:11:22.131Z,6.83
2018-01-24T08:13:48.228Z,6.90
2018-01-24T08:16:14.399Z,6.90
2018-01-24T08:18:40.477Z,5.90
2018-01-24T08:21:07.042Z,7.40
2018-01-24T08:23:33.275Z,6.50
2018-01-24T08:25:59.402Z,6.43
2018-01-24T08:28:25.459Z,6.50
2018-01-24T08:30:52.327Z,8.23
2018-01-24T08:33:18.469Z,5.57
2018-01-24T08:35:44.709Z,6.77
2018-01-24T08:38:13.210Z,6.43
2018-01-24T08:40:40.077Z,6.80
2018-01-24T08:43:06.985Z,5.43
2018-01-24T08:45:34.367Z,7.43
2018-01-24T08:48:00.545Z,7.07
2018-01-24T08:50:26.646Z,7.60
2018-01-24T08:52:52.697Z,6.30
2018-01-24T08:55:18.704Z,6.47
2018-01-24T08:57:45.652Z,6.57
2018-01-24T09:00:30.403Z,7.60
2018-01-24T09:03:16.401Z,8.93
2018-01-24T09:06:00.800Z,8.30
2018-01-24T09:08:46.307Z,7.40
2018-01-24T09:11:30.948Z,8.50
2018-01-24T09:14:16.474Z,7.03
2018-01-24T09:17:01.200Z,6.77
2018-01-24T09:19:45.757Z,8.80
2018-01-24T09:22:31.201Z,8.27
2018-01-24T09:24:58.501Z,8.23
2018-01-24T09:27:24.505Z,7.30
2018-01-24T09:29:51.669Z,9.90
2018-01-24T09:32:20.946Z,8.53
2018-01-24T09:34:50.247Z,8.83
2018-01-24T09:37:16.345Z,9.00
2018-01-24T09:39:43.030Z,9.10
2018-01-24T09:42:09.093Z,8.30
2018-01-24T09:44:39.281Z,9.40
2018-01-24T09:47:05.317Z,9.27
2018-01-24T09:49:35.065Z,8.20
2018-01-24T09:52:01.585Z,8.87
2018-01-24T09:54:31.386Z,8.20
2018-01-24T09:56:57.748Z,8.00
2018-01-24T09:59:23.708Z,7.50
2018-01-24T10:01:49.746Z,7.60
2018-01-24T10:04:15.784Z,8.40
2018-01-24T10:06:42.412Z,7.40
2018-01-24T10:09:08.670Z,8.10
2018-01-24T10:11:34.663Z,7.10
2018-01-24T10:14:00.650Z,6.63
2018-01-24T10:19:02.502Z,7.00
2018-01-24T10:21:32.252Z,6.90
2018-01-24T10:24:03.121Z,5.90
2018-01-24T10:26:31.382Z,5.60
2018-01-24T10:28:59.902Z,5.13
2018-01-24T10:31:30.306Z,5.40
2018-01-24T10:34:01.681Z,6.97
2018-01-24T10:39:08.000Z,4.67
2018-01-24T10:41:39.372Z,5.80
2018-01-24T10:44:08.969Z,5.10
2018-01-24T10:46:38.228Z,5.43
2018-01-24T10:49:08.284Z,4.73
2018-01-24T10:51:38.792Z,5.27
2018-01-24T10:54:07.390Z,5.40
2018-01-24T10:56:35.910Z,5.80
2018-01-24T10:59:10.693Z,5.60
2018-01-24T11:01:38.499Z,5.43
2018-01-24T11:04:11.604Z,5.90
2018-01-24T11:06:38.922Z,5.43
2018-01-24T11:09:10.494Z,6.10
2018-01-24T11:11:38.906Z,7.10
2018-01-24T11:14:08.944Z,7.67
2018-01-24T11:16:35.559Z,5.13
2018-01-24T11:19:05.598Z,5.27
2018-01-24T11:21:33.482Z,5.87
2018-01-24T11:24:05.248Z,5.37
2018-01-24T11:26:36.450Z,5.47
2018-01-24T11:29:03.484Z,4.47
2018-01-24T11:31:31.343Z,5.63
2018-01-24T11:34:00.172Z,5.37
2018-01-24T11:36:28.894Z,5.97
2018-01-24T11:38:58.314Z,5.90
2018-01-24T11:41:25.023Z,5.50
2018-01-24T11:43:53.597Z,5.50
2018-01-24T11:46:22.166Z,5.80
2018-01-24T11:48:51.174Z,5.40
2018-01-24T11:51:19.553Z,5.83
2018-01-24T11:56:25.445Z,5.40
2018-01-24T11:58:53.899Z,6.37
2018-01-24T12:01:20.836Z,6.60
2018-01-24T12:03:48.405Z,6.47
2018-01-24T12:06:17.018Z,7.37
2018-01-24T12:08:45.292Z,7.27
2018-01-24T12:11:13.824Z,7.47
2018-01-24T12:13:49.129Z,6.80
2018-01-24T12:16:20.262Z,6.23
2018-01-24T12:18:47.710Z,6.47
2018-01-24T12:21:15.187Z,6.43
2018-01-24T12:23:47.264Z,6.70
2018-01-24T12:31:26.581Z,5.97
2018-01-24T12:33:55.843Z,8.17
2018-01-24T12:36:24.086Z,6.47
2018-01-24T12:38:55.079Z,5.93
2018-01-24T12:41:22.872Z,6.93
2018-01-24T12:43:51.693Z,7.87
2018-01-24T12:46:19.957Z,6.40
2018-01-24T12:48:50.503Z,5.80
2018-01-24T12:51:17.587Z,5.67
2018-01-24T12:53:48.442Z,5.70
2018-01-24T12:56:18.124Z,5.33
2018-01-24T12:58:44.478Z,5.60
2018-01-24T13:01:12.095Z,5.30
2018-01-24T13:03:42.960Z,5.60
2018-01-24T13:06:10.083Z,6.03
2018-01-24T13:08:38.459Z,5.40
2018-01-24T13:11:08.083Z,5.77
2018-01-24T13:13:36.758Z,5.80
2018-01-24T13:16:03.755Z,8.97
2018-01-24T13:18:31.255Z,6.57
2018-01-24T13:20:58.168Z,5.80
2018-01-24T13:26:00.364Z,4.80
2018-01-24T13:28:27.206Z,4.10
2018-01-24T13:30:58.542Z,4.43
2018-01-24T13:33:25.773Z,4.47
2018-01-24T13:35:54.022Z,4.43
2018-01-24T13:38:27.135Z,4.97
2018-01-24T13:40:53.881Z,4.50
2018-01-24T13:43:27.081Z,4.00
2018-01-24T13:45:54.291Z,4.70
2018-01-24T13:48:22.956Z,4.47
2018-01-24T13:50:50.644Z,4.67
2018-01-24T13:53:17.356Z,4.73
2018-01-24T13:55:43.698Z,4.30
2018-01-24T13:58:09.681Z,4.27
2018-01-24T14:00:36.299Z,5.43
2018-01-24T14:03:03.370Z,4.30
2018-01-24T14:05:30.739Z,4.07
2018-01-24T14:07:58.883Z,3.90
2018-01-24T14:10:28.301Z,4.13
2018-01-24T14:12:56.688Z,4.50
2018-01-24T14:15:25.493Z,4.60
2018-01-24T14:17:53.990Z,4.30
2018-01-24T14:20:21.008Z,3.30
2018-01-24T14:22:51.349Z,3.53
2018-01-24T14:25:19.190Z,4.03
2018-01-24T14:27:46.239Z,3.80
2018-01-24T14:30:13.122Z,4.20
2018-01-24T14:32:39.670Z,4.10
2018-01-24T14:35:08.430Z,4.03
2018-01-24T14:37:39.888Z,3.80
2018-01-24T14:40:14.667Z,4.00
2018-01-24T14:42:42.365Z,4.00
2018-01-24T14:45:08.345Z,3.83
2018-01-24T14:47:34.693Z,3.40
2018-01-24T14:50:04.505Z,3.70
2018-01-24T14:55:07.007Z,3.37
2018-01-24T14:57:38.249Z,3.70
2018-01-24T15:00:05.442Z,3.57
2018-01-24T15:02:31.975Z,3.70
2018-01-24T15:05:00.551Z,3.67
2018-01-24T15:07:28.441Z,3.33
2018-01-24T15:09:57.791Z,3.40
2018-01-24T15:12:30.438Z,3.00
2018-01-24T15:14:56.514Z,4.20
2018-01-24T15:17:23.397Z,3.37
2018-01-24T15:19:50.266Z,5.10
2018-01-24T15:22:17.142Z,17.80
2018-01-24T15:24:44.361Z,3.23
2018-01-24T15:29:46.002Z,3.07
2018-01-24T15:32:13.633Z,3.07
2018-01-24T15:34:42.015Z,3.33
2018-01-24T15:37:12.267Z,3.17
2018-01-24T15:39:38.750Z,4.27
2018-01-24T15:42:06.281Z,3.43
2018-01-24T15:44:33.069Z,3.23
2018-01-24T15:47:00.739Z,3.70
2018-01-24T15:49:30.881Z,3.20
2018-01-24T15:52:04.939Z,3.33
2018-01-24T15:54:33.294Z,2.57
2018-01-24T15:57:05.169Z,2.70
2018-01-24T15:59:33.316Z,2.83
2018-01-24T16:02:00.786Z,2.77
2018-01-24T16:04:27.497Z,2.50
2018-01-24T16:06:54.771Z,2.70
2018-01-24T16:09:23.625Z,3.10
2018-01-24T16:11:52.913Z,3.20
2018-01-24T16:14:21.156Z,3.70
2018-01-24T16:16:49.753Z,3.30
2018-01-24T16:19:18.809Z,3.30
2018-01-24T16:21:48.637Z,2.63
2018-01-24T16:24:22.988Z,2.77
2018-01-24T16:26:51.179Z,2.63
2018-01-24T16:29:19.801Z,3.43
2018-01-24T16:31:47.985Z,3.17
2018-01-24T16:34:20.542Z,3.37
2018-01-24T16:36:51.634Z,2.60
2018-01-24T16:39:28.271Z,2.80
2018-01-24T16:41:59.197Z,2.50
2018-01-24T16:44:27.766Z,3.00
2018-01-24T16:46:54.910Z,2.87
2018-01-24T16:49:21.865Z,3.37
2018-01-24T16:51:51.332Z,3.20
2018-01-24T16:54:19.169Z,3.60
2018-01-24T16:56:46.348Z,3.17
2018-01-24T16:59:12.466Z,2.67
2018-01-24T17:01:48.986Z,2.87
2018-01-24T17:06:49.167Z,3.00
2018-01-24T17:12:14.373Z,2.73
2018-01-24T17:19:56.219Z,3.20
2018-01-24T17:22:23.145Z,2.67
2018-01-24T17:24:50.403Z,3.53
2018-01-24T17:27:47.870Z,3.20
2018-01-24T17:32:56.398Z,17.73
2018-01-24T17:38:12.385Z,5.50
2018-01-24T17:43:34.871Z,3.03
2018-01-24T17:46:06.374Z,3.60
2018-01-24T17:48:41.611Z,3.47
2018-01-24T17:51:10.039Z,4.17
2018-01-24T17:53:46.633Z,3.53
2018-01-24T17:56:14.066Z,3.53
2018-01-24T17:58:42.754Z,3.00
2018-01-24T18:01:14.559Z,3.30
2018-01-24T18:03:43.036Z,3.10
2018-01-24T18:06:10.974Z,3.73
2018-01-24T18:08:37.409Z,3.00
2018-01-24T18:11:04.300Z,3.33
2018-01-24T18:13:30.692Z,3.60
2018-01-24T18:15:56.916Z,4.57
2018-01-24T18:18:24.460Z,3.93
2018-01-24T18:20:55.027Z,3.50
2018-01-24T18:23:21.179Z,4.07
2018-01-24T18:25:48.172Z,4.87
2018-01-24T18:28:17.567Z,3.90
2018-01-24T18:30:43.783Z,4.13
2018-01-24T18:33:09.800Z,3.47
2018-01-24T18:35:37.591Z,4.33
2018-01-24T18:38:06.823Z,4.60
2018-01-24T18:40:37.268Z,4.47
2018-01-24T18:43:03.736Z,6.00
2018-01-24T18:45:30.012Z,4.00
2018-01-24T18:47:56.693Z,4.17
2018-01-24T18:50:22.917Z,4.50
2018-01-24T18:52:50.085Z,4.33
2018-01-24T18:55:17.335Z,4.57
2018-01-24T18:57:43.949Z,4.30
2018-01-24T19:00:10.494Z,4.00
2018-01-24T19:02:38.170Z,4.30
2018-01-24T19:05:06.963Z,4.10
2018-01-24T19:07:40.749Z,4.00
2018-01-24T19:10:07.349Z,4.93
2018-01-24T19:12:36.352Z,4.50
2018-01-24T19:15:02.773Z,4.30
2018-01-24T19:17:29.101Z,4.70
2018-01-24T19:19:55.352Z,4.33
2018-01-24T19:22:22.424Z,5.50
2018-01-24T19:24:50.587Z,4.57
2018-01-24T19:27:16.928Z,4.53
2018-01-24T19:29:42.884Z,4.90
2018-01-24T19:32:09.550Z,4.20
2018-01-24T19:34:36.110Z,3.97
2018-01-24T19:37:02.395Z,4.33
2018-01-24T19:39:28.598Z,4.87
2018-01-24T19:47:09.996Z,4.07
2018-01-24T19:49:38.772Z,4.40
2018-01-24T19:52:08.376Z,4.13
2018-01-24T19:59:42.378Z,4.27
2018-01-24T20:02:12.980Z,4.43
2018-01-24T20:04:40.276Z,3.90
2018-01-24T20:09:39.171Z,4.37
2018-01-24T20:12:10.312Z,3.53
2018-01-24T20:17:13.444Z,4.30
2018-01-24T20:19:40.520Z,3.97
2018-01-24T20:22:07.654Z,4.03
2018-01-24T20:24:33.851Z,4.10
2018-01-24T20:27:03.133Z,4.27
2018-01-24T20:29:35.358Z,5.10
2018-01-24T20:34:44.164Z,4.27
2018-01-24T20:39:42.951Z,4.20
2018-01-24T20:42:11.604Z,4.60
2018-01-24T20:44:39.866Z,4.73
2018-01-24T20:49:42.806Z,5.03
2018-01-24T20:52:09.741Z,4.07
2018-01-24T20:54:35.979Z,3.50
2018-01-24T20:57:03.983Z,4.17
2018-01-24T20:59:32.448Z,4.10
2018-01-24T21:04:30.023Z,4.40
2018-01-24T21:19:38.355Z,4.60
2018-01-24T21:22:04.438Z,4.30
2018-01-24T21:27:27.403Z,4.30
2018-01-24T21:30:10.639Z,4.50
2018-01-24T21:32:50.628Z,5.37
2018-01-24T21:38:36.043Z,6.00
2018-01-24T21:49:01.060Z,4.87
2018-01-24T21:54:03.561Z,5.10
2018-01-24T21:56:35.359Z,4.70
2018-01-24T21:59:05.664Z,5.30
2018-01-24T22:01:33.493Z,4.63
2018-01-24T22:06:49.228Z,4.17
2018-01-24T22:09:17.968Z,4.33
2018-01-24T22:11:48.363Z,4.30
2018-01-24T22:14:21.674Z,4.53
2018-01-24T22:16:54.617Z,4.47
2018-01-24T22:19:25.711Z,4.40
2018-01-24T22:21:54.536Z,4.07
2018-01-24T22:24:21.619Z,4.07
2018-01-24T22:26:53.214Z,4.23
2018-01-24T22:29:19.343Z,3.60
2018-01-24T22:31:47.650Z,3.80
2018-01-24T22:34:15.013Z,3.90
2018-01-24T22:36:43.689Z,5.53
2018-01-24T22:39:18.728Z,5.20
2018-01-24T22:41:46.469Z,4.67
2018-01-24T22:44:12.811Z,4.00
2018-01-24T22:49:25.307Z,3.90
2018-01-24T22:54:41.067Z,4.07
2018-01-24T23:08:06.021Z,3.80
2018-01-24T23:10:32.929Z,4.10
2018-01-24T23:13:00.577Z,4.63
2018-01-24T23:15:28.019Z,4.37
2018-01-24T23:17:55.298Z,4.20
2018-01-24T23:20:24.433Z,4.63
2018-01-24T23:22:52.395Z,4.50
2018-01-24T23:25:22.640Z,6.27
2018-01-24T23:27:49.915Z,3.87
2018-01-24T23:30:19.594Z,5.00
2018-01-24T23:32:47.206Z,4.67
2018-01-24T23:35:15.643Z,4.13
2018-01-24T23:37:41.940Z,4.00
2018-01-24T23:42:41.632Z,3.90
2018-01-24T23:45:10.493Z,4.00
2018-01-24T23:47:36.796Z,4.77
2018-01-24T23:50:04.755Z,4.33
2018-01-24T23:52:31.072Z,4.87
2018-01-24T23:54:57.195Z,5.30
2018-01-24T23:57:23.674Z,4.57
2018-01-24T23:59:55.558Z,4.60
